»·PEaware :: N48JF 49X-L52

N48JF :: 49X-L52

FLIGHT INFORMATION

Flight Status: Arrived
Operator: Privately registered:
United States
More flights under this callsign
Pilot: Mark P. (13279)
Aircraft: Unknown
(EA55)
More flights by this aircraft type
Origin: 49X Chemehuevi Valley
United States
Destination: L52 Oceano Co
United States
More flights between these airports :: More routes between these airports
Route: EED HEC PMD
File this flight plan on PilotEdge
Remarks:
Altitude:
(Current/Filed)
10,500ft
Speed:
(Current/Filed)
370kts
Departed: 15-Dec-16 01:53 PM
Arrived: 15-Dec-16 02:59 PM
Distance/Time
Traveled:
307nm/1:06
Distance/Time
To Go:
Arrived

Flight Plot

Page will automatically refresh every two minutes.


Map Options




Map Legend


Flown Route
Filed Route
Departure Airport
Arrival Airport
Navaid (VOR, NDB)
Fix

Horizontal Profiles

Position Reports

Time Latitude Longitude Heading Altitude Ground
Speed
15-Dec-16 13:40 34.522149 -114.432026 356 633ft 0kts
15-Dec-16 13:41 34.522149 -114.432026 356 633ft 0kts
15-Dec-16 13:42 34.522149 -114.432026 356 633ft 0kts
15-Dec-16 13:43 34.522149 -114.432026 356 633ft 0kts
15-Dec-16 13:44 34.522149 -114.432026 356 633ft 0kts
15-Dec-16 13:45 34.536829 -114.431564 358 1220ft 182kts
15-Dec-16 13:46 34.595160 -114.447389 352 5432ft 274kts
15-Dec-16 13:47 34.659584 -114.456169 348 9061ft 293kts
15-Dec-16 13:48 34.744492 -114.480320 314 10593ft 343kts
15-Dec-16 13:49 34.766086 -114.584947 271 10603ft 327kts
15-Dec-16 13:50 34.770720 -114.695568 269 10603ft 327kts
15-Dec-16 13:51 34.773640 -114.806607 268 10602ft 327kts
15-Dec-16 13:52 34.776042 -114.917099 268 10602ft 327kts
15-Dec-16 13:53 34.778229 -115.028064 269 10601ft 329kts
15-Dec-16 13:54 34.780324 -115.140348 269 10600ft 333kts
15-Dec-16 13:55 34.781959 -115.231118 270 10600ft 336kts
15-Dec-16 13:56 34.783927 -115.344861 270 10600ft 336kts
15-Dec-16 13:57 34.785779 -115.458533 270 10600ft 336kts
15-Dec-16 13:58 34.787499 -115.572627 270 10601ft 336kts
15-Dec-16 13:59 34.789281 -115.686062 269 10605ft 336kts
15-Dec-16 14:00 34.791162 -115.799231 269 10603ft 336kts
15-Dec-16 14:01 34.792677 -115.913510 269 10601ft 336kts
15-Dec-16 14:02 34.794000 -116.026850 269 10600ft 335kts
15-Dec-16 14:03 34.795203 -116.140352 269 10600ft 335kts
15-Dec-16 14:04 34.796312 -116.254573 269 10600ft 335kts
15-Dec-16 14:05 34.797303 -116.368186 269 10599ft 335kts
15-Dec-16 14:06 34.796529 -116.481768 261 10592ft 334kts
15-Dec-16 14:07 34.784391 -116.593922 262 10590ft 334kts
15-Dec-16 14:08 34.773349 -116.706058 262 10565ft 334kts
15-Dec-16 14:09 34.762398 -116.818596 262 10565ft 334kts
15-Dec-16 14:10 34.751275 -116.930296 261 10569ft 331kts
15-Dec-16 14:11 34.740092 -117.041127 261 10583ft 325kts
15-Dec-16 14:12 34.729014 -117.149567 261 10598ft 320kts
15-Dec-16 14:13 34.717951 -117.256880 261 10599ft 321kts
15-Dec-16 14:14 34.706758 -117.364668 261 10599ft 321kts
15-Dec-16 14:15 34.695479 -117.472332 261 10598ft 321kts
15-Dec-16 14:16 34.684098 -117.580046 261 10597ft 321kts
15-Dec-16 14:17 34.672883 -117.687180 260 10594ft 321kts
15-Dec-16 14:18 34.661689 -117.794716 260 10582ft 321kts
15-Dec-16 14:19 34.650132 -117.901984 259 10580ft 321kts
15-Dec-16 14:20 34.639260 -118.001563 0 10586ft 0kts
15-Dec-16 14:21 34.641111 -118.105600 278 10348ft 325kts
15-Dec-16 14:22 34.659852 -118.207638 279 9931ft 270kts
15-Dec-16 14:23 34.681458 -118.294667 291 9667ft 271kts
15-Dec-16 14:24 34.711207 -118.379690 285 10558ft 291kts
15-Dec-16 14:25 34.740518 -118.482298 284 10593ft 331kts
15-Dec-16 14:26 34.769080 -118.589308 283 10604ft 331kts
15-Dec-16 14:27 34.796166 -118.692205 283 10627ft 331kts
15-Dec-16 14:28 34.824089 -118.798775 283 10638ft 330kts
15-Dec-16 14:29 34.851805 -118.906032 282 10618ft 335kts
15-Dec-16 14:30 34.879910 -119.015616 282 10594ft 341kts
15-Dec-16 14:31 34.908104 -119.126077 282 10585ft 341kts
15-Dec-16 14:32 34.936102 -119.236295 282 10584ft 340kts
15-Dec-16 14:34 34.989441 -119.447499 281 10580ft 340kts
15-Dec-16 14:35 35.016953 -119.557141 282 10581ft 336kts
15-Dec-16 14:36 35.043372 -119.662815 282 10585ft 328kts
15-Dec-16 14:37 35.069717 -119.766812 282 10586ft 323kts
15-Dec-16 14:38 35.095485 -119.870663 279 10478ft 321kts
15-Dec-16 14:39 35.095701 -119.964052 269 9067ft 254kts
15-Dec-16 14:40 35.095957 -120.049041 272 7686ft 256kts
15-Dec-16 14:41 35.097016 -120.145716 268 6273ft 287kts
15-Dec-16 14:42 35.097973 -120.241683 269 4883ft 278kts
15-Dec-16 14:43 35.098916 -120.334807 271 3485ft 269kts
15-Dec-16 14:44 35.099731 -120.413797 271 2338ft 207kts
15-Dec-16 14:45 35.100401 -120.483878 271 1944ft 205kts
15-Dec-16 14:46 35.101010 -120.553532 271 1538ft 204kts
15-Dec-16 14:47 35.101414 -120.602819 271 1173ft 153kts
15-Dec-16 14:48 35.108768 -120.660844 306 1008ft 152kts
15-Dec-16 14:49 35.127551 -120.656103 96 599ft 90kts
15-Dec-16 14:50 35.109159 -120.634657 138 239ft 94kts
15-Dec-16 14:51 35.099567 -120.619455 210 18ft 8kts
15-Dec-16 14:52 35.100853 -120.622099 305 18ft 15kts
15-Dec-16 14:53 35.103303 -120.624160 272 18ft 5kts
15-Dec-16 14:54 35.103198 -120.624299 214 18ft 0kts
15-Dec-16 14:55 35.103198 -120.624299 214 18ft 0kts
15-Dec-16 14:56 35.103198 -120.624299 214 18ft 0kts

Navigation Log

Ident Type
Flight plan parsing failed, navigation log unavailable